Bearsdale, Illinois
Current Conditions -  °F | °C
As of 6:54 AM on Saturday 25 Oct 2014 (Local Time) from KDEC Reporting Station
Clear Clear  
Wind Chill: 57°   Ceiling: Unl
Heat Index: 57°   Visibility: 7mi
Dew Point: 54°   Wind: 8mph
Humidity: 89%   Direction: 290°WNW
Pressure: 29.99"   Gusts: NA
Location:  39.9062°N, 88.9645°W
Report Text: KDEC 251154Z 29007KT 7SM CLR 14/12 A2999 RMK AO2 SLP155 T01390122 10167 20139 51010
Loading
Personal Weather Stations






























Interactive Weather Map
Tropical Storm Tracking
New forecast layout! Learn more

10-Day Weather Forecast

Advertisements
Track Severe Weather on mobile